createdAt,value
2019-04-25T00:00:46.634Z,1.30
2019-04-25T00:03:22.286Z,1.30
2019-04-25T00:05:55.770Z,1.30
2019-04-25T00:08:29.341Z,1.27
2019-04-25T00:11:03.730Z,1.13
2019-04-25T00:13:38.044Z,1.40
2019-04-25T00:16:12.375Z,1.63
2019-04-25T00:18:46.323Z,1.20
2019-04-25T00:21:27.389Z,1.40
2019-04-25T00:24:05.134Z,1.83
2019-04-25T00:26:44.084Z,1.60
2019-04-25T00:29:18.060Z,1.60
2019-04-25T00:31:53.311Z,1.30
2019-04-25T00:34:27.170Z,1.63
2019-04-25T00:37:02.347Z,1.50
2019-04-25T00:39:35.925Z,1.33
2019-04-25T00:42:09.615Z,1.40
2019-04-25T00:44:44.801Z,1.50
2019-04-25T00:47:18.372Z,1.80
2019-04-25T00:49:52.440Z,1.70
2019-04-25T00:52:26.747Z,1.73
2019-04-25T00:55:01.919Z,1.50
2019-04-25T00:57:36.916Z,1.60
2019-04-25T01:00:15.139Z,1.40
2019-04-25T01:02:52.494Z,1.47
2019-04-25T01:05:25.456Z,1.77
2019-04-25T01:07:58.913Z,3.30
2019-04-25T01:10:32.495Z,2.90
2019-04-25T01:13:06.504Z,2.60
2019-04-25T01:15:40.113Z,3.50
2019-04-25T01:18:13.647Z,3.57
2019-04-25T01:20:47.213Z,3.20
2019-04-25T01:23:20.720Z,2.40
2019-04-25T01:25:57.331Z,3.07
2019-04-25T01:28:30.837Z,2.77
2019-04-25T01:31:06.297Z,1.73
2019-04-25T01:33:39.842Z,1.47
2019-04-25T01:36:31.146Z,1.37
2019-04-25T01:39:08.620Z,1.80
2019-04-25T01:41:44.217Z,1.67
2019-04-25T01:44:19.338Z,1.30
2019-04-25T01:46:54.463Z,1.00
2019-04-25T01:49:28.397Z,1.30
2019-04-25T01:52:03.448Z,1.00
2019-04-25T01:54:37.025Z,1.20
2019-04-25T01:57:11.356Z,1.53
2019-04-25T01:59:44.849Z,1.10
2019-04-25T02:02:20.056Z,1.30
2019-04-25T02:04:55.357Z,1.40
2019-04-25T02:07:28.723Z,1.10
2019-04-25T02:10:03.781Z,1.20
2019-04-25T02:12:39.111Z,1.20
2019-04-25T02:15:14.294Z,1.20
2019-04-25T02:17:47.749Z,1.40
2019-04-25T02:20:21.271Z,1.43
2019-04-25T02:22:55.632Z,1.50
2019-04-25T02:25:29.900Z,1.37
2019-04-25T02:28:05.631Z,1.43
2019-04-25T02:30:38.833Z,1.43
2019-04-25T02:33:14.220Z,1.30
2019-04-25T02:35:47.584Z,1.30
2019-04-25T02:38:21.121Z,1.40
2019-04-25T02:40:58.675Z,1.43
2019-04-25T02:43:29.954Z,1.27
2019-04-25T02:46:08.756Z,1.50
2019-04-25T02:48:49.354Z,1.50
2019-04-25T02:51:45.096Z,1.50
2019-04-25T02:54:18.192Z,1.50
2019-04-25T02:56:51.615Z,1.53
2019-04-25T02:59:25.491Z,1.33
2019-04-25T03:01:59.272Z,1.15
2019-04-25T03:04:34.043Z,1.33
2019-04-25T03:07:11.119Z,1.20
2019-04-25T03:09:44.872Z,1.37
2019-04-25T03:12:29.200Z,1.50
2019-04-25T03:14:54.977Z,1.60
2019-04-25T03:17:28.280Z,1.57
2019-04-25T03:20:06.686Z,1.67
2019-04-25T03:22:38.638Z,1.90
2019-04-25T03:25:16.442Z,1.90
2019-04-25T03:27:47.319Z,2.13
2019-04-25T03:30:20.861Z,2.00
2019-04-25T03:32:56.212Z,1.60
2019-04-25T03:35:29.434Z,1.97
2019-04-25T03:38:04.298Z,1.77
2019-04-25T03:40:37.942Z,1.40
2019-04-25T03:43:11.367Z,1.50
2019-04-25T03:45:45.334Z,1.53
2019-04-25T03:48:18.899Z,1.73
2019-04-25T03:50:53.957Z,1.90
2019-04-25T03:53:27.565Z,1.73
2019-04-25T03:56:01.049Z,1.90
2019-04-25T03:58:34.480Z,2.03
2019-04-25T04:01:09.323Z,2.20
2019-04-25T04:03:43.976Z,3.00
2019-04-25T04:06:17.658Z,2.87
2019-04-25T04:08:51.075Z,3.43
2019-04-25T04:11:24.708Z,3.30
2019-04-25T04:13:58.145Z,3.13
2019-04-25T04:16:34.275Z,3.30
2019-04-25T04:19:08.867Z,2.93
2019-04-25T04:21:50.047Z,3.10
2019-04-25T04:24:25.853Z,3.00
2019-04-25T04:27:14.471Z,2.77
2019-04-25T04:29:48.463Z,3.33
2019-04-25T04:32:21.968Z,2.50
2019-04-25T04:34:55.411Z,2.50
2019-04-25T04:37:28.861Z,2.20
2019-04-25T04:40:03.585Z,2.80
2019-04-25T04:42:37.135Z,2.23
2019-04-25T04:45:10.657Z,2.40
2019-04-25T04:47:44.124Z,2.40
2019-04-25T04:50:17.543Z,2.60
2019-04-25T04:52:50.949Z,3.27
2019-04-25T04:55:24.582Z,4.13
2019-04-25T04:57:58.157Z,4.30
2019-04-25T05:00:31.765Z,4.00
2019-04-25T05:03:26.679Z,4.43
2019-04-25T05:06:03.659Z,4.70
2019-04-25T05:08:45.008Z,4.60
2019-04-25T05:11:18.453Z,4.40
2019-04-25T05:13:51.975Z,4.80
2019-04-25T05:16:25.390Z,5.00
2019-04-25T05:18:58.881Z,4.97
2019-04-25T05:21:33.690Z,5.70
2019-04-25T05:24:07.259Z,5.90
2019-04-25T05:26:40.698Z,4.90
2019-04-25T05:29:19.776Z,4.20
2019-04-25T05:31:51.013Z,4.07
2019-04-25T05:34:25.810Z,4.30
2019-04-25T05:36:59.324Z,4.43
2019-04-25T05:39:33.445Z,5.33
2019-04-25T05:42:11.295Z,5.43
2019-04-25T05:44:44.921Z,5.40
2019-04-25T05:47:20.499Z,5.10
2019-04-25T05:49:54.165Z,4.83
2019-04-25T05:52:27.649Z,4.13
2019-04-25T05:55:01.134Z,3.97
2019-04-25T05:57:45.463Z,3.43
2019-04-25T06:00:11.662Z,3.53
2019-04-25T06:02:46.179Z,2.40
2019-04-25T06:08:30.902Z,1.90
2019-04-25T06:11:05.972Z,1.90
2019-04-25T06:13:41.249Z,2.30
2019-04-25T06:16:16.537Z,2.00
2019-04-25T06:19:12.962Z,1.93
2019-04-25T06:21:35.890Z,1.90
2019-04-25T06:24:26.196Z,1.30
2019-04-25T06:27:01.318Z,1.60
2019-04-25T06:29:34.929Z,1.50
2019-04-25T06:32:08.772Z,1.30
2019-04-25T06:34:42.274Z,1.30
2019-04-25T06:37:15.644Z,1.37
2019-04-25T06:39:49.053Z,1.83
2019-04-25T06:42:24.593Z,1.70
2019-04-25T06:45:03.553Z,1.37
2019-04-25T06:47:41.783Z,1.47
2019-04-25T06:50:15.847Z,1.50
2019-04-25T06:52:49.273Z,1.60
2019-04-25T06:55:25.626Z,1.77
2019-04-25T06:58:09.275Z,1.30
2019-04-25T07:00:40.544Z,1.30
2019-04-25T07:03:08.794Z,1.53
2019-04-25T07:05:43.910Z,1.30
2019-04-25T07:08:17.659Z,1.20
2019-04-25T07:10:51.178Z,1.70
2019-04-25T07:13:25.637Z,1.40
2019-04-25T07:16:00.074Z,1.83
2019-04-25T07:18:36.328Z,1.40
2019-04-25T07:21:08.807Z,1.20
2019-04-25T07:23:43.222Z,1.10
2019-04-25T07:26:19.229Z,1.20
2019-04-25T07:29:00.471Z,1.20
2019-04-25T07:31:38.671Z,1.50
2019-04-25T07:34:13.831Z,1.20
2019-04-25T07:36:48.305Z,0.97
2019-04-25T07:39:23.678Z,1.20
2019-04-25T07:41:57.079Z,1.50
2019-04-25T07:44:45.071Z,1.10
2019-04-25T07:47:06.147Z,1.27
2019-04-25T07:49:39.614Z,1.30
2019-04-25T07:52:13.640Z,1.20
2019-04-25T07:54:47.107Z,1.50
2019-04-25T07:57:20.534Z,1.20
2019-04-25T07:59:54.109Z,1.10
2019-04-25T08:02:28.138Z,1.40
2019-04-25T08:05:04.287Z,1.10
2019-04-25T08:07:38.012Z,1.20
2019-04-25T08:10:14.021Z,1.40
2019-04-25T08:12:47.583Z,1.47
2019-04-25T08:15:35.043Z,1.20
2019-04-25T08:18:10.032Z,1.30
2019-04-25T08:20:44.010Z,1.13
2019-04-25T08:23:21.662Z,1.30
2019-04-25T08:25:55.307Z,1.50
2019-04-25T08:28:29.602Z,1.40
2019-04-25T08:31:04.067Z,1.83
2019-04-25T08:33:37.758Z,1.57
2019-04-25T08:36:11.268Z,1.70
2019-04-25T08:38:44.888Z,1.83
2019-04-25T08:41:18.402Z,1.40
2019-04-25T08:43:52.091Z,1.40
2019-04-25T08:46:25.533Z,1.43
2019-04-25T08:49:06.722Z,1.97
2019-04-25T08:51:44.733Z,1.40
2019-04-25T08:54:23.607Z,1.30
2019-04-25T08:56:58.985Z,1.40
2019-04-25T08:59:44.742Z,1.13
2019-04-25T09:02:36.022Z,1.10
2019-04-25T09:05:20.741Z,1.30
2019-04-25T09:07:54.484Z,1.40
2019-04-25T09:10:27.945Z,1.10
2019-04-25T09:13:01.386Z,0.93
2019-04-25T09:15:36.630Z,1.50
2019-04-25T09:18:10.413Z,1.60
2019-04-25T09:20:46.497Z,2.33
2019-04-25T09:23:19.243Z,1.90
2019-04-25T09:25:54.389Z,1.90
2019-04-25T09:28:28.117Z,2.07
2019-04-25T09:31:01.593Z,2.00
2019-04-25T09:33:36.033Z,1.83
2019-04-25T09:36:09.954Z,2.20
2019-04-25T09:38:47.964Z,2.10
2019-04-25T09:41:18.702Z,2.13
2019-04-25T09:43:54.970Z,2.10
2019-04-25T09:46:30.337Z,2.10
2019-04-25T09:49:05.421Z,1.97
2019-04-25T09:51:40.599Z,1.83
2019-04-25T09:54:15.807Z,2.00
2019-04-25T09:56:50.831Z,2.37
2019-04-25T09:59:27.872Z,1.80
2019-04-25T10:02:00.113Z,2.10
2019-04-25T10:04:34.680Z,1.70
2019-04-25T10:07:26.761Z,1.80
2019-04-25T10:10:00.349Z,1.83
2019-04-25T10:15:52.913Z,1.70
2019-04-25T10:22:03.367Z,1.50
2019-04-25T10:24:37.431Z,1.37
2019-04-25T10:27:11.938Z,1.70
2019-04-25T10:30:39.510Z,1.70
2019-04-25T10:34:44.634Z,1.50
2019-04-25T10:35:52.549Z,1.87
2019-04-25T10:38:26.281Z,1.57
2019-04-25T10:41:04.252Z,2.10
2019-04-25T10:43:39.508Z,1.97
2019-04-25T10:46:14.280Z,2.70
2019-04-25T10:48:50.628Z,1.70
2019-04-25T10:51:24.324Z,1.80
2019-04-25T10:53:57.908Z,1.87
2019-04-25T10:56:33.372Z,1.97
2019-04-25T10:59:07.144Z,1.90
2019-04-25T11:01:41.228Z,1.87
2019-04-25T11:04:16.486Z,1.90
2019-04-25T11:06:50.182Z,1.67
2019-04-25T11:09:25.259Z,1.33
2019-04-25T11:11:58.815Z,1.57
2019-04-25T11:14:34.027Z,1.53
2019-04-25T11:17:07.626Z,1.30
2019-04-25T11:19:41.236Z,1.87
2019-04-25T11:22:15.578Z,1.30
2019-04-25T11:24:49.504Z,1.40
2019-04-25T11:27:23.960Z,1.40
2019-04-25T11:30:08.467Z,1.50
2019-04-25T11:32:33.938Z,1.30
2019-04-25T11:35:07.847Z,1.37
2019-04-25T11:37:43.104Z,1.40
2019-04-25T11:40:19.885Z,1.50
2019-04-25T11:42:54.575Z,1.30
2019-04-25T11:45:28.276Z,1.10
2019-04-25T11:48:02.015Z,1.20
2019-04-25T11:50:37.023Z,1.40
2019-04-25T11:53:10.666Z,1.50
2019-04-25T11:55:47.706Z,1.00
2019-04-25T11:58:19.698Z,1.10
2019-04-25T12:00:54.127Z,0.95
2019-04-25T12:03:28.487Z,1.20
2019-04-25T12:06:01.899Z,1.13
2019-04-25T12:08:35.413Z,1.00
2019-04-25T12:11:08.983Z,0.90
2019-04-25T12:13:45.988Z,0.80
2019-04-25T12:16:19.102Z,0.97
2019-04-25T12:18:55.329Z,1.00
2019-04-25T12:21:27.936Z,0.90
2019-04-25T12:24:03.692Z,0.80
2019-04-25T12:26:36.805Z,0.73
2019-04-25T12:29:10.395Z,0.77
2019-04-25T12:31:45.524Z,1.00
2019-04-25T12:34:19.022Z,0.80
2019-04-25T12:36:54.332Z,0.70
2019-04-25T12:39:28.396Z,0.85
2019-04-25T12:42:02.010Z,0.72
2019-04-25T12:44:39.587Z,0.90
2019-04-25T12:47:14.662Z,0.80
2019-04-25T12:49:48.669Z,1.00
2019-04-25T12:52:24.424Z,0.88
2019-04-25T12:54:58.170Z,1.05
2019-04-25T12:57:32.077Z,0.62
2019-04-25T13:00:06.373Z,0.95
2019-04-25T13:02:39.801Z,0.70
2019-04-25T13:05:14.188Z,0.98
2019-04-25T13:07:47.779Z,0.88
2019-04-25T13:10:23.455Z,1.30
2019-04-25T13:12:56.712Z,0.95
2019-04-25T13:15:33.803Z,0.93
2019-04-25T13:18:07.217Z,0.90
2019-04-25T13:20:40.630Z,0.98
2019-04-25T13:23:14.459Z,0.90
2019-04-25T13:25:47.931Z,0.80
2019-04-25T13:28:23.283Z,1.02
2019-04-25T13:31:16.530Z,0.93
2019-04-25T13:34:09.642Z,1.00
2019-04-25T13:36:44.332Z,0.60
2019-04-25T13:39:19.141Z,0.95
2019-04-25T13:41:54.299Z,0.70
2019-04-25T13:44:27.973Z,0.85
2019-04-25T13:47:12.137Z,0.80
2019-04-25T13:49:45.496Z,0.70
2019-04-25T13:52:19.056Z,0.90
2019-04-25T13:54:53.767Z,0.80
2019-04-25T13:57:27.861Z,0.62
2019-04-25T14:00:01.524Z,0.80
2019-04-25T14:02:34.974Z,0.85
2019-04-25T14:05:08.756Z,0.85
2019-04-25T14:07:42.758Z,0.57
2019-04-25T14:10:16.393Z,0.85
2019-04-25T14:12:49.803Z,0.82
2019-04-25T14:15:25.331Z,0.50
2019-04-25T14:18:06.223Z,0.62
2019-04-25T14:20:44.029Z,0.60
2019-04-25T14:23:17.553Z,0.72
2019-04-25T14:25:50.997Z,0.82
2019-04-25T14:28:25.527Z,0.70
2019-04-25T14:31:00.013Z,0.70
2019-04-25T14:33:35.270Z,0.47
2019-04-25T14:36:09.000Z,0.75
2019-04-25T14:38:42.430Z,0.80
2019-04-25T14:41:16.000Z,0.60
2019-04-25T14:43:49.439Z,0.60
2019-04-25T14:46:23.001Z,0.53
2019-04-25T14:48:56.551Z,0.50
2019-04-25T14:51:30.652Z,0.60
2019-04-25T14:54:05.817Z,0.70
2019-04-25T14:56:49.757Z,0.40
2019-04-25T14:59:24.485Z,0.50
2019-04-25T15:01:59.546Z,0.53
2019-04-25T15:04:33.188Z,0.50
2019-04-25T15:07:06.642Z,0.72
2019-04-25T15:09:40.151Z,0.50
2019-04-25T15:12:14.353Z,0.50
2019-04-25T15:14:47.873Z,0.85
2019-04-25T15:17:21.433Z,0.50
2019-04-25T15:19:54.917Z,0.50
2019-04-25T15:22:28.354Z,1.15
2019-04-25T15:25:01.787Z,0.68
2019-04-25T15:27:35.334Z,0.60
2019-04-25T15:30:10.550Z,0.60
2019-04-25T15:32:44.227Z,0.70
2019-04-25T15:35:19.315Z,0.65
2019-04-25T15:37:56.856Z,0.82
2019-04-25T15:40:31.946Z,0.82
2019-04-25T15:43:12.503Z,0.60
2019-04-25T15:45:47.682Z,0.60
2019-04-25T15:48:21.340Z,0.60
2019-04-25T15:50:55.590Z,0.80
2019-04-25T15:53:29.336Z,0.60
2019-04-25T15:56:02.909Z,0.70
2019-04-25T15:58:37.369Z,0.68
2019-04-25T16:01:11.465Z,0.98
2019-04-25T16:03:44.981Z,0.60
2019-04-25T16:06:18.614Z,0.60
2019-04-25T16:08:52.365Z,0.80
2019-04-25T16:11:26.599Z,0.78
2019-04-25T16:14:00.420Z,0.70
2019-04-25T16:16:33.938Z,0.75
2019-04-25T16:19:07.623Z,0.70
2019-04-25T16:21:42.234Z,0.88
2019-04-25T16:24:15.848Z,0.60
2019-04-25T16:26:49.331Z,0.70
2019-04-25T16:29:23.283Z,0.78
2019-04-25T16:31:58.424Z,0.60
2019-04-25T16:34:31.749Z,0.65
2019-04-25T16:37:05.361Z,0.70
2019-04-25T16:39:40.507Z,0.80
2019-04-25T16:42:14.115Z,0.50
2019-04-25T16:44:50.896Z,0.60
2019-04-25T16:47:25.966Z,0.60
2019-04-25T16:49:59.347Z,0.78
2019-04-25T16:52:33.836Z,0.50
2019-04-25T16:55:08.569Z,0.70
2019-04-25T16:57:42.056Z,0.78
2019-04-25T17:00:20.315Z,0.62
2019-04-25T17:03:02.274Z,0.72
2019-04-25T17:05:35.729Z,0.95
2019-04-25T17:08:09.326Z,1.10
2019-04-25T17:10:42.750Z,1.07
2019-04-25T17:13:16.688Z,1.12
2019-04-25T17:16:03.711Z,1.10
2019-04-25T17:18:38.814Z,0.80
2019-04-25T17:21:12.294Z,1.10
2019-04-25T17:23:45.699Z,1.10
2019-04-25T17:26:20.021Z,1.10
2019-04-25T17:28:55.137Z,1.13
2019-04-25T17:31:30.272Z,1.37
2019-04-25T17:34:05.472Z,1.10
2019-04-25T17:36:41.467Z,1.10
2019-04-25T17:39:26.967Z,1.03
2019-04-25T17:42:01.459Z,1.10
2019-04-25T17:44:36.159Z,1.30
2019-04-25T17:47:09.771Z,1.00
2019-04-25T17:49:44.374Z,1.00
2019-04-25T17:52:17.968Z,1.00
2019-04-25T17:54:51.526Z,1.07
2019-04-25T17:57:25.243Z,1.10
2019-04-25T17:59:58.854Z,1.13
2019-04-25T18:02:33.525Z,1.03
2019-04-25T18:05:07.536Z,0.80
2019-04-25T18:07:41.791Z,0.90
2019-04-25T18:10:15.852Z,0.80
2019-04-25T18:12:49.345Z,1.03
2019-04-25T18:15:24.426Z,0.80
2019-04-25T18:17:58.027Z,0.80
2019-04-25T18:20:36.664Z,0.70
2019-04-25T18:23:11.924Z,0.70
2019-04-25T18:26:02.185Z,0.70
2019-04-25T18:28:37.458Z,0.60
2019-04-25T18:31:11.063Z,0.90
2019-04-25T18:33:44.611Z,0.73
2019-04-25T18:36:28.709Z,0.87
2019-04-25T18:39:03.815Z,0.67
2019-04-25T18:41:46.016Z,0.90
2019-04-25T18:44:19.723Z,0.53
2019-04-25T18:46:53.393Z,0.60
2019-04-25T18:49:26.905Z,0.70
2019-04-25T18:52:01.978Z,0.50
2019-04-25T18:54:45.704Z,0.53
2019-04-25T18:57:32.657Z,0.60
2019-04-25T19:00:24.927Z,1.00
2019-04-25T19:03:09.277Z,0.70
2019-04-25T19:05:54.496Z,0.70
2019-04-25T19:08:29.811Z,0.60
2019-04-25T19:11:04.316Z,0.70
2019-04-25T19:13:47.388Z,0.80
2019-04-25T19:16:31.947Z,0.70
2019-04-25T19:19:06.775Z,0.70
2019-04-25T19:21:41.562Z,0.60
2019-04-25T19:24:31.176Z,0.60
2019-04-25T19:27:05.629Z,0.63
2019-04-25T19:29:40.341Z,0.80
2019-04-25T19:32:14.096Z,0.60
2019-04-25T19:34:48.740Z,0.77
2019-04-25T19:37:22.538Z,0.60
2019-04-25T19:40:06.961Z,0.67
2019-04-25T19:42:42.311Z,1.00
2019-04-25T19:45:16.103Z,0.90
2019-04-25T19:47:49.781Z,0.80
2019-04-25T19:50:23.401Z,0.60
2019-04-25T19:52:57.072Z,0.67
2019-04-25T19:55:30.795Z,0.70
2019-04-25T19:58:04.724Z,0.70
2019-04-25T20:00:38.367Z,0.60
2019-04-25T20:03:13.748Z,0.80
2019-04-25T20:06:04.321Z,0.80
2019-04-25T20:08:48.738Z,0.70
2019-04-25T20:11:26.992Z,0.60
2019-04-25T20:14:00.712Z,0.60
2019-04-25T20:16:36.007Z,0.70
2019-04-25T20:19:09.671Z,0.90
2019-04-25T20:21:44.447Z,0.60
2019-04-25T20:24:18.259Z,0.50
2019-04-25T20:26:52.589Z,0.67
2019-04-25T20:29:26.218Z,0.70
2019-04-25T20:31:59.769Z,0.67
2019-04-25T20:34:33.247Z,0.77
2019-04-25T20:37:06.850Z,0.77
2019-04-25T20:39:40.447Z,0.80
2019-04-25T20:42:13.975Z,0.67
2019-04-25T20:44:47.727Z,0.70
2019-04-25T20:47:21.516Z,0.70
2019-04-25T20:49:55.352Z,0.70
2019-04-25T20:52:28.910Z,0.70
2019-04-25T20:55:02.455Z,0.90
2019-04-25T20:57:35.969Z,0.80
2019-04-25T21:00:09.796Z,0.60
2019-04-25T21:02:43.408Z,0.60
2019-04-25T21:05:16.926Z,0.80
2019-04-25T21:07:51.251Z,0.73
2019-04-25T21:10:24.833Z,0.80
2019-04-25T21:12:58.433Z,0.77
2019-04-25T21:15:45.995Z,0.70
2019-04-25T21:18:36.459Z,0.80
2019-04-25T21:21:10.056Z,0.90
2019-04-25T21:23:43.592Z,0.73
2019-04-25T21:26:17.170Z,1.00
2019-04-25T21:28:51.013Z,1.00
2019-04-25T21:31:25.649Z,0.90
2019-04-25T21:34:00.191Z,0.73
2019-04-25T21:36:34.112Z,1.00
2019-04-25T21:39:09.830Z,0.90
2019-04-25T21:41:51.418Z,1.00
2019-04-25T21:44:25.882Z,0.90
2019-04-25T21:46:59.642Z,1.00
2019-04-25T21:49:34.275Z,0.90
2019-04-25T21:52:07.945Z,1.10
2019-04-25T21:54:41.895Z,1.23
2019-04-25T21:57:15.705Z,1.00
2019-04-25T22:00:00.520Z,1.13
2019-04-25T22:02:24.936Z,1.03
2019-04-25T22:04:58.815Z,1.10
2019-04-25T22:07:32.765Z,1.10
2019-04-25T22:10:08.232Z,1.00
2019-04-25T22:12:41.762Z,1.27
2019-04-25T22:15:15.889Z,1.03
2019-04-25T22:17:49.519Z,1.00
2019-04-25T22:20:23.149Z,1.03
2019-04-25T22:22:57.032Z,1.03
2019-04-25T22:25:31.713Z,1.00
2019-04-25T22:28:05.670Z,0.97
2019-04-25T22:30:40.465Z,1.33
2019-04-25T22:33:15.603Z,1.30
2019-04-25T22:35:53.658Z,1.00
2019-04-25T22:38:27.557Z,1.20
2019-04-25T22:41:01.294Z,1.30
2019-04-25T22:43:36.985Z,1.17
2019-04-25T22:46:10.705Z,1.27
2019-04-25T22:48:50.125Z,1.53
2019-04-25T22:51:23.714Z,1.30
2019-04-25T22:53:57.603Z,1.30
2019-04-25T22:56:31.119Z,1.40
2019-04-25T22:59:04.923Z,1.40
2019-04-25T23:01:48.586Z,1.40
2019-04-25T23:04:40.174Z,1.80
2019-04-25T23:07:14.665Z,1.20
2019-04-25T23:09:49.587Z,1.23
2019-04-25T23:12:23.393Z,1.40
2019-04-25T23:14:56.893Z,1.53
2019-04-25T23:17:30.477Z,1.40
2019-04-25T23:20:05.726Z,1.40
2019-04-25T23:22:39.449Z,1.30
2019-04-25T23:25:14.813Z,1.60
2019-04-25T23:27:50.075Z,1.57
2019-04-25T23:30:28.141Z,1.60
2019-04-25T23:33:01.701Z,1.80
2019-04-25T23:35:35.759Z,1.83
2019-04-25T23:38:12.142Z,1.70
2019-04-25T23:40:44.920Z,1.40
2019-04-25T23:43:18.932Z,1.60
2019-04-25T23:45:52.434Z,1.70
2019-04-25T23:48:26.179Z,1.80
2019-04-25T23:50:59.654Z,1.77
2019-04-25T23:53:33.293Z,1.80
2019-04-25T23:56:07.732Z,1.97
2019-04-25T23:58:42.148Z,1.70
